Time;durP1;ratioP1;P1;durP2;ratioP2;P2;SDS_P1;SDS_P2;PMS_P1;PMS_P2;Temp;Humidity;BMP_temperature;BMP_pressure;BME280_temperature;BME280_humidity;BME280_pressure;Samples;Min_cycle;Max_cycle;Signal;HPM_P1;HPM_P2
2024/01/28 00:02:14;;;;;;;16.05;8.20;;;-0.80;54.10;;;;;;5046343;28;48321;-78
2024/01/28 00:04:40;;;;;;;19.08;8.77;;;-0.80;54.20;;;;;;5068648;27;46788;-77
2024/01/28 00:07:05;;;;;;;16.53;8.90;;;-0.80;54.10;;;;;;5050874;28;46398;-78
2024/01/28 00:09:31;;;;;;;16.43;9.10;;;-0.80;54.20;;;;;;5067735;27;46693;-77
2024/01/28 00:11:56;;;;;;;24.50;10.23;;;-0.70;54.30;;;;;;5066379;27;48042;-77
2024/01/28 00:14:22;;;;;;;18.63;10.43;;;-0.50;54.60;;;;;;5058004;28;46859;-77
2024/01/28 00:16:51;;;;;;;21.60;11.00;;;-0.40;54.40;;;;;;5067154;28;46666;-77
2024/01/28 00:19:16;;;;;;;26.60;10.02;;;-0.30;54.90;;;;;;5068738;28;45953;-80
2024/01/28 00:21:42;;;;;;;23.20;11.57;;;-0.20;55.40;;;;;;5066972;27;47107;-77
2024/01/28 00:24:07;;;;;;;23.50;10.97;;;-0.20;57.20;;;;;;5063475;27;46692;-75
2024/01/28 00:26:40;;;;;;;21.30;10.80;;;-0.10;56.80;;;;;;5068465;28;46409;-77
2024/01/28 00:29:06;;;;;;;23.35;11.15;;;-0.10;57.10;;;;;;5066336;28;46881;-75
2024/01/28 00:31:32;;;;;;;21.55;11.52;;;-0.10;57.40;;;;;;5068760;28;47173;-78
2024/01/28 00:33:59;;;;;;;19.73;10.90;;;-0.10;57.70;;;;;;5065164;28;46523;-78
2024/01/28 00:36:24;;;;;;;17.45;10.00;;;-0.10;57.80;;;;;;5068445;28;46726;-77
2024/01/28 00:38:50;;;;;;;22.33;11.90;;;-0.20;57.90;;;;;;5067040;27;46798;-77
2024/01/28 00:41:23;;;;;;;21.30;9.43;;;-0.20;58.10;;;;;;5069288;28;46372;-78
2024/01/28 00:43:50;;;;;;;20.52;9.75;;;-0.30;58.30;;;;;;5068237;28;46900;-77
2024/01/28 00:46:16;;;;;;;17.85;10.02;;;-0.30;58.40;;;;;;5065758;27;46434;-78
2024/01/28 00:48:43;;;;;;;23.67;10.70;;;-0.30;58.60;;;;;;5067468;28;46406;-76
2024/01/28 00:51:08;;;;;;;14.90;9.55;;;-0.40;58.60;;;;;;5065630;28;46470;-77
2024/01/28 00:53:34;;;;;;;25.87;10.27;;;-0.40;58.70;;;;;;5067839;27;46847;-78
2024/01/28 00:55:59;;;;;;;20.23;9.27;;;-0.50;58.80;;;;;;5068410;28;46522;-78
2024/01/28 00:58:29;;;;;;;24.10;9.93;;;-0.50;58.80;;;;;;5049831;28;46730;-78
2024/01/28 01:00:54;;;;;;;26.33;10.50;;;-0.60;58.90;;;;;;5066624;27;46508;-78
2024/01/28 01:03:20;;;;;;;19.87;10.27;;;-0.60;58.90;;;;;;5048570;28;46867;-78
2024/01/28 01:05:46;;;;;;;20.57;10.00;;;-0.60;59.00;;;;;;5068299;28;46542;-78
2024/01/28 01:08:11;;;;;;;24.55;11.07;;;-0.60;59.10;;;;;;5059198;28;46780;-77
2024/01/28 01:10:37;;;;;;;16.80;10.07;;;-0.60;59.00;;;;;;5071087;28;46736;-79
2024/01/28 01:13:03;;;;;;;18.40;10.63;;;-0.60;59.20;;;;;;5067931;27;46764;-76
2024/01/28 01:15:32;;;;;;;23.07;10.77;;;-0.60;59.20;;;;;;5065979;28;46532;-79
2024/01/28 01:17:57;;;;;;;19.70;9.98;;;-0.70;59.10;;;;;;5048836;28;46751;-79
2024/01/28 01:20:23;;;;;;;22.33;10.83;;;-0.80;59.20;;;;;;5069201;28;46616;-80
2024/01/28 01:22:49;;;;;;;17.00;10.27;;;-0.80;59.10;;;;;;5055964;28;46407;-78
2024/01/28 01:25:14;;;;;;;21.37;10.30;;;-0.80;59.10;;;;;;5066755;28;46586;-78
2024/01/28 01:27:40;;;;;;;19.90;10.50;;;-0.80;59.10;;;;;;5065612;27;48148;-78
2024/01/28 01:30:07;;;;;;;26.85;11.43;;;-0.90;60.30;;;;;;5066576;28;46097;-78
2024/01/28 01:32:35;;;;;;;18.88;10.55;;;-0.90;59.10;;;;;;5068441;28;46796;-79
2024/01/28 01:35:01;;;;;;;20.40;11.35;;;-0.90;59.20;;;;;;5067002;28;46542;-77
2024/01/28 01:37:27;;;;;;;19.53;10.30;;;-0.90;59.00;;;;;;5065736;28;46966;-79
2024/01/28 01:39:52;;;;;;;18.57;9.60;;;-0.80;59.00;;;;;;5055777;28;48157;-79
2024/01/28 01:42:18;;;;;;;16.80;9.63;;;-0.80;59.00;;;;;;5051000;28;47257;-79
2024/01/28 01:44:43;;;;;;;21.80;9.53;;;-0.70;59.10;;;;;;5071131;28;46519;-76
2024/01/28 01:47:09;;;;;;;22.23;10.00;;;-0.70;59.10;;;;;;5058404;28;46645;-77
2024/01/28 01:49:35;;;;;;;15.80;8.70;;;-0.70;59.20;;;;;;5067815;28;47243;-78
2024/01/28 01:52:01;;;;;;;14.00;9.20;;;-0.70;59.30;;;;;;5068974;28;46375;-79
2024/01/28 01:54:28;;;;;;;16.25;8.30;;;-0.80;59.40;;;;;;5071116;27;46755;-78
2024/01/28 01:56:53;;;;;;;14.63;8.30;;;-0.70;59.50;;;;;;5071508;27;46993;-78
2024/01/28 01:59:20;;;;;;;16.50;8.30;;;-0.70;59.60;;;;;;5055025;28;48516;-79
2024/01/28 02:01:46;;;;;;;15.30;9.15;;;-0.80;59.40;;;;;;5070268;28;46905;-78
2024/01/28 02:04:12;;;;;;;12.32;7.95;;;-0.80;59.40;;;;;;5069423;27;46448;-80
2024/01/28 02:06:38;;;;;;;13.97;8.20;;;-0.80;59.40;;;;;;5055900;28;45959;-75
2024/01/28 02:09:05;;;;;;;12.80;7.80;;;-0.80;59.40;;;;;;5069693;27;46115;-77
2024/01/28 02:11:31;;;;;;;14.45;7.97;;;-0.70;59.70;;;;;;5070486;28;46317;-78
2024/01/28 02:13:56;;;;;;;12.90;7.73;;;-0.60;59.80;;;;;;5070868;28;46436;-78
2024/01/28 02:16:25;;;;;;;15.27;7.30;;;-0.60;59.80;;;;;;5072654;28;45824;-78
2024/01/28 02:18:51;;;;;;;13.95;6.85;;;-0.60;59.80;;;;;;5071918;28;46659;-79
2024/01/28 02:21:16;;;;;;;12.97;7.90;;;-0.60;59.80;;;;;;5071396;28;45829;-78
2024/01/28 02:23:42;;;;;;;11.97;7.50;;;-0.60;59.90;;;;;;5060171;28;46446;-76
2024/01/28 02:26:08;;;;;;;16.20;7.87;;;-0.70;60.00;;;;;;5052836;28;46547;-77
2024/01/28 02:28:33;;;;;;;13.10;7.60;;;-0.80;60.00;;;;;;5063086;28;48391;-79
2024/01/28 02:30:59;;;;;;;13.73;7.20;;;-0.80;60.20;;;;;;5070411;28;46862;-77
2024/01/28 02:33:24;;;;;;;11.27;7.13;;;-0.90;60.50;;;;;;5071149;28;46475;-78
2024/01/28 02:35:50;;;;;;;17.13;9.10;;;-1.00;60.60;;;;;;5071698;28;46432;-77
2024/01/28 02:38:15;;;;;;;13.50;7.60;;;-1.10;60.70;;;;;;5073920;28;46673;-77
2024/01/28 02:40:41;;;;;;;14.13;7.90;;;-1.10;60.80;;;;;;5072501;28;46692;-78
2024/01/28 02:43:07;;;;;;;13.75;7.97;;;-1.20;61.00;;;;;;5071590;28;45842;-79
2024/01/28 02:45:33;;;;;;;14.47;9.10;;;-1.20;61.20;;;;;;5068728;28;46623;-81
2024/01/28 02:47:58;;;;;;;15.60;9.23;;;-1.30;61.30;;;;;;5072901;27;46422;-78
2024/01/28 02:50:24;;;;;;;15.50;8.10;;;-1.30;61.50;;;;;;5060031;28;46688;-81
2024/01/28 02:52:49;;;;;;;18.27;8.90;;;-1.30;61.50;;;;;;5067943;28;46650;-81
2024/01/28 02:55:15;;;;;;;16.30;7.93;;;-1.40;61.50;;;;;;5070580;27;46644;-80
2024/01/28 02:57:40;;;;;;;15.30;8.27;;;-1.40;61.60;;;;;;5070369;28;46526;-79
2024/01/28 03:00:07;;;;;;;12.20;8.00;;;-1.40;61.60;;;;;;5072086;27;46510;-76
2024/01/28 03:02:33;;;;;;;14.13;8.02;;;-1.50;61.50;;;;;;5059251;28;46843;-79
2024/01/28 03:04:59;;;;;;;13.88;8.10;;;-1.50;61.60;;;;;;5054237;28;46621;-78
2024/01/28 03:07:24;;;;;;;12.73;8.00;;;-1.50;61.60;;;;;;5060543;28;48221;-80
2024/01/28 03:09:50;;;;;;;14.93;7.87;;;-1.50;61.70;;;;;;5069714;27;46492;-78
2024/01/28 03:12:15;;;;;;;14.57;8.10;;;-1.50;61.60;;;;;;5073365;28;46635;-79
2024/01/28 03:14:41;;;;;;;20.23;8.03;;;-1.50;61.60;;;;;;5072744;28;46472;-80
2024/01/28 03:17:06;;;;;;;12.87;7.57;;;-1.50;61.40;;;;;;5074666;28;46233;-81
2024/01/28 03:19:32;;;;;;;16.00;7.97;;;-1.50;61.50;;;;;;5072644;28;46517;-79
2024/01/28 03:21:57;;;;;;;17.03;9.70;;;-1.50;61.40;;;;;;5053742;27;46930;-78
2024/01/28 03:24:23;;;;;;;18.93;10.50;;;-1.50;61.30;;;;;;5080188;28;46362;-78
2024/01/28 03:26:49;;;;;;;21.80;11.10;;;-1.60;61.50;;;;;;5051771;28;48071;-78
2024/01/28 03:29:15;;;;;;;20.17;11.20;;;-1.80;61.60;;;;;;5042838;28;46761;-77
2024/01/28 03:31:41;;;;;;;26.02;11.15;;;-1.80;61.80;;;;;;5069948;28;46430;-78
2024/01/28 03:34:07;;;;;;;17.20;10.03;;;-1.90;62.00;;;;;;5070160;28;47311;-78
2024/01/28 03:36:32;;;;;;;17.30;10.30;;;-1.90;62.00;;;;;;5067776;28;46688;-78
2024/01/28 03:38:58;;;;;;;20.20;9.47;;;-1.90;61.90;;;;;;5067917;28;46550;-79
2024/01/28 03:41:23;;;;;;;15.90;8.77;;;-1.90;62.00;;;;;;5071304;28;47059;-78
2024/01/28 03:43:49;;;;;;;17.57;9.73;;;-1.80;62.20;;;;;;5068822;27;46415;-77
2024/01/28 03:46:14;;;;;;;19.90;9.40;;;-1.90;62.10;;;;;;5068224;28;46663;-78
2024/01/28 03:48:40;;;;;;;18.20;9.87;;;-1.90;62.00;;;;;;5069355;27;46615;-78
2024/01/28 03:51:06;;;;;;;15.93;8.93;;;-2.00;61.90;;;;;;5068704;28;46444;-78
2024/01/28 03:53:32;;;;;;;15.73;9.03;;;-2.00;63.20;;;;;;5057025;28;46515;-77
2024/01/28 03:55:58;;;;;;;17.80;8.65;;;-2.10;62.10;;;;;;5068914;28;47156;-78
2024/01/28 03:58:23;;;;;;;15.40;9.40;;;-2.10;62.20;;;;;;5068057;28;46510;-78
2024/01/28 04:00:49;;;;;;;16.70;9.53;;;-2.10;62.30;;;;;;5067232;28;45967;-77
2024/01/28 04:03:14;;;;;;;18.73;8.70;;;-2.20;62.30;;;;;;5047375;28;46692;-78
2024/01/28 04:05:42;;;;;;;13.17;8.67;;;-2.20;62.40;;;;;;5066122;27;47143;-77
2024/01/28 04:08:11;;;;;;;15.50;8.40;;;-2.20;62.50;;;;;;5069669;28;46787;-77
2024/01/28 04:10:36;;;;;;;16.20;9.25;;;-2.20;62.50;;;;;;5063853;27;46419;-78
2024/01/28 04:13:02;;;;;;;19.30;9.03;;;-2.20;62.60;;;;;;5069700;28;46486;-78
2024/01/28 04:15:28;;;;;;;17.50;8.40;;;-2.30;62.60;;;;;;5047330;28;49217;-78
2024/01/28 04:17:53;;;;;;;22.60;9.77;;;-2.20;62.70;;;;;;5065514;28;46446;-78
2024/01/28 04:20:19;;;;;;;17.73;9.93;;;-2.20;62.50;;;;;;5049601;28;45883;-78
2024/01/28 04:22:44;;;;;;;13.70;7.50;;;-2.20;62.50;;;;;;5067970;28;45995;-77
2024/01/28 04:25:12;;;;;;;13.57;8.10;;;-2.30;62.30;;;;;;5058512;28;48336;-79
2024/01/28 04:27:37;;;;;;;18.67;8.77;;;-2.20;62.30;;;;;;5066085;28;46164;-78
2024/01/28 04:30:05;;;;;;;14.37;8.63;;;-2.30;62.30;;;;;;5066025;28;46924;-78
2024/01/28 04:32:31;;;;;;;15.45;8.27;;;-2.30;62.30;;;;;;5048340;28;46968;-77
2024/01/28 04:34:56;;;;;;;15.63;8.80;;;-2.30;62.30;;;;;;5049168;28;48319;-78
2024/01/28 04:37:23;;;;;;;16.00;7.90;;;-2.30;62.30;;;;;;5066576;28;46768;-78
2024/01/28 04:39:50;;;;;;;14.60;8.50;;;-2.30;62.40;;;;;;5069293;27;46371;-78
2024/01/28 04:42:21;;;;;;;16.10;9.27;;;-2.40;62.40;;;;;;5070376;28;46482;-77
2024/01/28 04:44:47;;;;;;;13.60;8.35;;;-2.40;62.40;;;;;;5067207;28;46698;-79
2024/01/28 04:47:13;;;;;;;14.77;8.10;;;-2.40;62.40;;;;;;5068916;28;46402;-77
2024/01/28 04:49:39;;;;;;;12.93;7.27;;;-2.40;62.50;;;;;;5066753;28;47017;-78
2024/01/28 04:52:05;;;;;;;15.40;7.77;;;-2.40;62.60;;;;;;5067649;28;46159;-78
2024/01/28 04:54:30;;;;;;;13.10;7.13;;;-2.50;62.30;;;;;;5065052;27;46431;-78
2024/01/28 04:56:56;;;;;;;12.40;7.93;;;-2.50;62.30;;;;;;5058055;28;46486;-78
2024/01/28 04:59:22;;;;;;;15.63;8.20;;;-2.40;62.40;;;;;;5067536;28;46325;-78
2024/01/28 05:01:47;;;;;;;18.60;9.40;;;-2.50;62.20;;;;;;5057038;28;46847;-79
2024/01/28 05:04:13;;;;;;;16.53;9.00;;;-2.50;62.20;;;;;;5050176;28;48279;-78
2024/01/28 05:06:38;;;;;;;14.47;8.50;;;-2.50;62.00;;;;;;5062983;27;46439;-78
2024/01/28 05:09:06;;;;;;;13.93;8.33;;;-2.50;62.00;;;;;;5066948;28;46534;-78
2024/01/28 05:11:31;;;;;;;14.25;8.48;;;-2.50;62.00;;;;;;5062906;27;46810;-78
2024/01/28 05:13:58;;;;;;;13.73;7.10;;;-2.50;61.90;;;;;;5054342;28;49161;-77
2024/01/28 05:16:24;;;;;;;16.35;8.15;;;-2.40;62.00;;;;;;5066237;27;46400;-78
2024/01/28 05:18:51;;;;;;;12.98;7.40;;;-2.50;61.80;;;;;;5064798;28;45943;-78
2024/01/28 05:21:17;;;;;;;11.43;6.78;;;-2.40;62.00;;;;;;5067703;28;46419;-78
2024/01/28 05:23:42;;;;;;;15.47;8.90;;;-2.50;61.90;;;;;;5065145;27;46592;-79
2024/01/28 05:26:08;;;;;;;16.93;7.97;;;-2.60;63.00;;;;;;5066110;28;46519;-76
2024/01/28 05:28:33;;;;;;;16.53;9.33;;;-2.60;61.90;;;;;;5064018;28;46674;-80
2024/01/28 05:30:59;;;;;;;15.03;8.27;;;-2.60;62.00;;;;;;5071672;28;46473;-78
2024/01/28 05:33:24;;;;;;;14.40;8.37;;;-2.60;62.00;;;;;;5070077;28;47057;-79
2024/01/28 05:35:50;;;;;;;15.23;8.00;;;-2.70;62.00;;;;;;5074546;28;46434;-78
2024/01/28 05:38:15;;;;;;;15.97;8.50;;;-2.70;62.00;;;;;;5070833;28;46442;-78
2024/01/28 05:40:41;;;;;;;14.10;7.80;;;-2.70;62.10;;;;;;5071800;28;47165;-78
2024/01/28 05:43:07;;;;;;;16.67;8.20;;;-2.70;62.20;;;;;;5067647;28;46283;-77
2024/01/28 05:45:32;;;;;;;15.27;7.95;;;-2.70;62.30;;;;;;5051276;28;46950;-76
2024/01/28 05:48:01;;;;;;;15.87;8.87;;;-2.80;62.10;;;;;;5069335;28;46571;-78
2024/01/28 05:50:29;;;;;;;13.80;8.45;;;-2.70;62.20;;;;;;5069641;28;46440;-77
2024/01/28 05:52:54;;;;;;;13.98;8.07;;;-2.70;62.00;;;;;;5072464;28;47808;-77
2024/01/28 05:55:20;;;;;;;14.97;7.53;;;-2.80;61.90;;;;;;5069796;28;46479;-79
2024/01/28 05:57:46;;;;;;;17.10;8.93;;;-2.70;61.90;;;;;;5067262;27;46507;-79
2024/01/28 06:00:12;;;;;;;13.50;7.43;;;-2.80;61.90;;;;;;5067499;28;46486;-77
2024/01/28 06:02:38;;;;;;;12.73;7.00;;;-2.90;62.00;;;;;;5070973;28;46818;-78
2024/01/28 06:05:04;;;;;;;13.30;7.90;;;-2.90;62.10;;;;;;5072285;27;46656;-78
2024/01/28 06:07:30;;;;;;;12.90;7.00;;;-2.90;62.10;;;;;;5060079;28;46871;-79
2024/01/28 06:09:56;;;;;;;14.37;7.50;;;-2.90;62.20;;;;;;5070897;28;46496;-78
2024/01/28 06:12:21;;;;;;;11.60;7.37;;;-2.90;61.90;;;;;;5070882;27;46537;-78
2024/01/28 06:14:47;;;;;;;11.70;7.30;;;-2.90;62.00;;;;;;5071715;28;46431;-78
2024/01/28 06:17:14;;;;;;;12.33;6.90;;;-2.90;62.00;;;;;;5072114;28;46370;-79
2024/01/28 06:19:39;;;;;;;11.73;6.75;;;-2.90;62.00;;;;;;5068963;27;46488;-78
2024/01/28 06:22:05;;;;;;;13.17;8.07;;;-2.90;62.00;;;;;;5068470;28;48066;-78
2024/01/28 06:24:30;;;;;;;12.80;7.00;;;-2.90;61.90;;;;;;5067370;27;46509;-79
2024/01/28 06:26:56;;;;;;;13.13;7.83;;;-2.90;61.90;;;;;;5049367;27;46631;-78
2024/01/28 06:29:21;;;;;;;13.10;7.20;;;-2.90;61.80;;;;;;5069153;28;46594;-77
2024/01/28 06:31:47;;;;;;;12.80;7.47;;;-2.90;61.90;;;;;;5065702;28;47379;-79
2024/01/28 06:34:13;;;;;;;15.57;7.97;;;-2.90;61.80;;;;;;5068635;28;46251;-78
2024/01/28 06:36:38;;;;;;;17.93;8.00;;;-2.90;61.90;;;;;;5071347;28;46372;-79
2024/01/28 06:39:04;;;;;;;12.77;7.17;;;-3.00;61.70;;;;;;5059568;28;46791;-79
2024/01/28 06:41:29;;;;;;;16.30;7.67;;;-2.90;61.60;;;;;;5066373;28;47105;-80
2024/01/28 06:43:55;;;;;;;12.77;7.17;;;-3.00;61.50;;;;;;5057607;27;46769;-79
2024/01/28 06:46:20;;;;;;;14.90;7.73;;;-2.90;61.60;;;;;;5054163;28;46469;-81
2024/01/28 06:48:46;;;;;;;13.30;7.70;;;-2.90;61.60;;;;;;5068322;28;46526;-80
2024/01/28 06:51:11;;;;;;;15.30;8.07;;;-2.90;61.60;;;;;;5069790;28;46500;-79
2024/01/28 06:53:37;;;;;;;13.57;7.17;;;-2.90;61.60;;;;;;5052127;28;46895;-80
2024/01/28 06:56:03;;;;;;;14.30;7.87;;;-2.90;61.50;;;;;;5072069;28;46645;-76
2024/01/28 06:58:29;;;;;;;14.63;8.30;;;-2.90;61.30;;;;;;5048515;28;46735;-77
2024/01/28 07:00:54;;;;;;;15.17;8.43;;;-2.90;61.20;;;;;;5068334;28;45935;-77
2024/01/28 07:03:20;;;;;;;17.10;8.30;;;-2.80;61.20;;;;;;5070299;28;46518;-79
2024/01/28 07:05:46;;;;;;;18.50;7.40;;;-2.80;61.10;;;;;;5059847;28;46503;-78
2024/01/28 07:08:11;;;;;;;13.95;6.95;;;-2.80;60.90;;;;;;5075570;27;46772;-81
2024/01/28 07:10:37;;;;;;;12.27;6.93;;;-2.70;60.90;;;;;;5073639;28;46430;-81
2024/01/28 07:13:03;;;;;;;12.53;7.30;;;-2.70;60.70;;;;;;5078208;28;46567;-78
2024/01/28 07:15:30;;;;;;;13.50;7.50;;;-2.70;60.60;;;;;;5069822;28;46573;-79
2024/01/28 07:17:55;;;;;;;13.32;7.30;;;-2.60;60.50;;;;;;5067383;28;46428;-78
2024/01/28 07:20:21;;;;;;;12.63;7.50;;;-2.60;60.50;;;;;;5050954;28;48163;-78
2024/01/28 07:22:46;;;;;;;14.07;8.20;;;-2.50;60.40;;;;;;5071727;28;45966;-77
2024/01/28 07:25:13;;;;;;;13.57;7.70;;;-2.50;60.40;;;;;;5068900;28;46321;-81
2024/01/28 07:27:39;;;;;;;15.55;7.35;;;-2.40;60.30;;;;;;5070315;27;46590;-79
2024/01/28 07:30:06;;;;;;;12.50;7.17;;;-2.40;60.20;;;;;;5051900;28;48126;-78
2024/01/28 07:32:31;;;;;;;13.60;7.55;;;-2.30;60.10;;;;;;5069122;28;46487;-79
2024/01/28 07:34:57;;;;;;;12.20;8.30;;;-2.30;60.10;;;;;;5064887;27;45804;-78
2024/01/28 07:37:23;;;;;;;16.43;7.60;;;-2.20;60.00;;;;;;5069154;28;46368;-77
2024/01/28 07:39:48;;;;;;;13.00;7.37;;;-2.10;59.90;;;;;;5070717;27;46741;-79
2024/01/28 07:42:14;;;;;;;14.50;8.10;;;-2.10;59.70;;;;;;5054946;28;46792;-78
2024/01/28 07:44:39;;;;;;;12.20;7.70;;;-2.00;59.70;;;;;;5070127;28;46550;-77
2024/01/28 07:47:05;;;;;;;10.60;7.07;;;-2.00;59.50;;;;;;5069095;28;46462;-77
2024/01/28 07:49:31;;;;;;;14.20;7.90;;;-1.90;59.50;;;;;;5058899;28;48967;-76
2024/01/28 07:51:56;;;;;;;12.07;7.07;;;-1.80;59.30;;;;;;5066352;28;46518;-80
2024/01/28 07:54:22;;;;;;;16.90;8.70;;;-1.80;59.20;;;;;;5059638;28;45955;-78
2024/01/28 07:56:47;;;;;;;18.10;10.10;;;-1.70;59.10;;;;;;5065259;28;46952;-83
2024/01/28 07:59:13;;;;;;;13.40;8.30;;;-1.50;59.00;;;;;;5070597;28;46741;-80
2024/01/28 08:01:38;;;;;;;9.83;5.90;;;-1.50;58.80;;;;;;5068009;28;46494;-82
2024/01/28 08:04:04;;;;;;;14.97;7.70;;;-1.40;58.80;;;;;;5070340;27;46821;-81
2024/01/28 08:06:30;;;;;;;13.33;7.43;;;-1.30;58.80;;;;;;5069929;27;46464;-81
2024/01/28 08:08:56;;;;;;;12.40;7.27;;;-1.20;58.80;;;;;;5068447;27;46689;-81
2024/01/28 08:11:21;;;;;;;11.77;6.80;;;-1.20;58.60;;;;;;5066660;28;46348;-78
2024/01/28 08:13:48;;;;;;;11.83;6.63;;;-1.00;58.50;;;;;;5070522;28;46756;-79
2024/01/28 08:16:14;;;;;;;9.10;5.63;;;-0.80;58.40;;;;;;5069549;28;46411;-81
2024/01/28 08:18:40;;;;;;;8.88;4.93;;;-0.70;58.30;;;;;;5065164;28;46493;-78
2024/01/28 08:21:05;;;;;;;6.17;4.23;;;-0.40;58.30;;;;;;5068100;28;47037;-80
2024/01/28 08:23:33;;;;;;;6.20;4.37;;;-0.20;58.80;;;;;;5069054;27;46617;-78
2024/01/28 08:25:58;;;;;;;6.10;4.50;;;-0.10;58.70;;;;;;5050717;28;46538;-81
2024/01/28 08:28:24;;;;;;;6.03;4.17;;;0.10;58.60;;;;;;5072061;28;46575;-80
2024/01/28 08:30:50;;;;;;;4.13;3.70;;;0.30;58.60;;;;;;5071000;28;47060;-81
2024/01/28 08:33:15;;;;;;;3.92;3.20;;;0.40;59.10;;;;;;5057065;28;46677;-81
2024/01/28 08:35:43;;;;;;;6.20;3.50;;;0.60;59.00;;;;;;5060210;28;46811;-79
2024/01/28 08:38:09;;;;;;;6.05;3.95;;;0.70;59.10;;;;;;5057103;28;48390;-79
2024/01/28 08:40:34;;;;;;;5.37;3.70;;;0.80;59.20;;;;;;5070959;27;47353;-79
2024/01/28 08:43:00;;;;;;;7.53;4.90;;;0.90;59.20;;;;;;5051657;28;46467;-78
2024/01/28 08:45:26;;;;;;;7.38;4.53;;;1.00;59.40;;;;;;5053138;28;46436;-77
2024/01/28 08:47:51;;;;;;;8.50;4.90;;;1.10;59.50;;;;;;5067407;28;47073;-76
2024/01/28 08:50:17;;;;;;;7.33;4.63;;;1.20;59.90;;;;;;5060636;28;46730;-78
2024/01/28 08:52:43;;;;;;;5.90;3.60;;;1.40;59.80;;;;;;5084391;28;46648;-80
2024/01/28 08:55:09;;;;;;;5.90;3.80;;;1.50;59.90;;;;;;5074244;28;46677;-80
2024/01/28 08:57:35;;;;;;;7.10;4.38;;;1.60;59.90;;;;;;5069843;27;46853;-80
2024/01/28 09:00:01;;;;;;;6.70;4.10;;;1.70;59.90;;;;;;5067582;28;46541;-80
2024/01/28 09:02:26;;;;;;;6.88;4.10;;;1.80;59.70;;;;;;5069758;28;46467;-80
2024/01/28 09:04:52;;;;;;;5.00;3.10;;;2.00;59.40;;;;;;5065492;28;46548;-80
2024/01/28 09:07:18;;;;;;;6.60;2.93;;;2.10;59.20;;;;;;5067941;28;47193;-78
2024/01/28 09:09:43;;;;;;;4.07;2.53;;;2.30;58.90;;;;;;5054586;28;46482;-77
2024/01/28 09:12:09;;;;;;;4.30;2.47;;;2.40;58.90;;;;;;5065619;28;46360;-79
2024/01/28 09:14:35;;;;;;;3.47;2.00;;;2.60;59.10;;;;;;5065853;28;46614;-77
2024/01/28 09:17:02;;;;;;;5.10;1.87;;;2.70;59.00;;;;;;5065813;28;47045;-77
2024/01/28 09:19:27;;;;;;;3.17;1.80;;;2.80;58.40;;;;;;5065715;27;46536;-77
2024/01/28 09:21:54;;;;;;;3.00;1.70;;;3.00;58.30;;;;;;5056323;27;46547;-77
2024/01/28 09:24:19;;;;;;;3.83;2.60;;;3.10;58.00;;;;;;5052874;28;46822;-79
2024/01/28 09:26:46;;;;;;;4.90;1.90;;;3.20;58.00;;;;;;5056456;27;47234;-78
2024/01/28 09:29:11;;;;;;;3.55;2.40;;;3.30;57.90;;;;;;5059411;27;45822;-78
2024/01/28 09:31:37;;;;;;;4.87;3.17;;;3.50;57.90;;;;;;5065025;27;46421;-79
2024/01/28 09:34:03;;;;;;;2.80;1.90;;;3.50;57.30;;;;;;5060940;27;46614;-77
2024/01/28 09:36:28;;;;;;;4.05;2.17;;;3.60;57.00;;;;;;5060064;27;47597;-80
2024/01/28 09:38:54;;;;;;;2.70;1.60;;;3.80;57.00;;;;;;5061281;27;47035;-81
2024/01/28 09:41:31;;;;;;;4.50;2.23;;;3.90;56.70;;;;;;5063576;27;46977;-79
2024/01/28 09:43:56;;;;;;;2.03;1.40;;;4.00;56.20;;;;;;5044440;28;46529;-79
2024/01/28 09:46:22;;;;;;;2.43;1.80;;;4.10;55.80;;;;;;5042990;28;48398;-77
2024/01/28 09:48:51;;;;;;;3.05;1.75;;;4.20;55.80;;;;;;5063173;27;46516;-77
2024/01/28 09:51:20;;;;;;;3.40;1.80;;;4.30;55.70;;;;;;5041477;28;46539;-78
2024/01/28 09:53:45;;;;;;;2.97;1.77;;;4.40;55.50;;;;;;5062991;27;46582;-75
2024/01/28 09:56:13;;;;;;;4.27;3.00;;;4.50;55.20;;;;;;5056201;27;47457;-79
2024/01/28 09:58:41;;;;;;;3.65;2.22;;;4.60;54.90;;;;;;5062223;27;46592;-79
2024/01/28 10:01:09;;;;;;;3.93;2.67;;;4.50;55.00;;;;;;5061539;27;46590;-80
2024/01/28 10:03:35;;;;;;;5.43;3.03;;;4.60;55.30;;;;;;5062877;27;46805;-79
2024/01/28 10:06:00;;;;;;;3.60;2.23;;;4.60;55.30;;;;;;5058897;27;46588;-78
2024/01/28 10:08:27;;;;;;;5.53;2.47;;;4.70;55.30;;;;;;5060961;27;46522;-79
2024/01/28 10:10:55;;;;;;;5.07;3.20;;;4.70;55.10;;;;;;5061295;27;46509;-77
2024/01/28 10:13:21;;;;;;;5.10;2.30;;;4.80;55.00;;;;;;5043913;28;46428;-78
2024/01/28 10:15:56;;;;;;;3.30;2.30;;;4.90;54.70;;;;;;5060268;27;47088;-78
2024/01/28 10:18:23;;;;;;;4.07;2.60;;;4.90;53.90;;;;;;5067213;27;46511;-76
2024/01/28 10:20:49;;;;;;;2.33;1.73;;;5.00;53.70;;;;;;5067396;27;46483;-79
2024/01/28 10:23:15;;;;;;;3.10;2.20;;;5.00;53.60;;;;;;5065484;27;47032;-78
2024/01/28 10:25:41;;;;;;;5.20;2.30;;;4.90;53.50;;;;;;5062250;27;46811;-77
2024/01/28 10:28:08;;;;;;;4.07;2.57;;;4.90;53.80;;;;;;5061883;27;46677;-77
2024/01/28 10:30:33;;;;;;;3.80;2.47;;;4.90;53.90;;;;;;5047651;27;46596;-79
2024/01/28 10:33:00;;;;;;;3.67;2.03;;;4.90;54.00;;;;;;5063019;27;46770;-80
2024/01/28 10:35:26;;;;;;;5.20;3.00;;;5.00;53.70;;;;;;5058039;27;47237;-80
2024/01/28 10:37:55;;;;;;;6.37;2.87;;;5.00;53.30;;;;;;5066383;27;46966;-78
2024/01/28 10:40:27;;;;;;;5.10;2.60;;;5.10;52.60;;;;;;5066131;27;46390;-79
2024/01/28 10:42:57;;;;;;;3.40;2.23;;;5.20;52.10;;;;;;5063764;27;46416;-79
2024/01/28 10:45:24;;;;;;;5.07;2.63;;;5.30;51.80;;;;;;5061701;27;46563;-79
2024/01/28 10:47:55;;;;;;;4.40;2.33;;;5.30;51.10;;;;;;5065519;27;46767;-81
2024/01/28 10:50:21;;;;;;;3.93;2.23;;;5.40;50.00;;;;;;5045122;28;46440;-81
2024/01/28 10:52:48;;;;;;;4.57;2.30;;;5.40;49.60;;;;;;5075197;27;46941;-80
2024/01/28 10:55:16;;;;;;;4.33;2.07;;;5.50;48.80;;;;;;5047882;28;48314;-79
2024/01/28 10:57:42;;;;;;;4.37;2.50;;;5.40;48.70;;;;;;5063991;28;46783;-78
2024/01/28 11:00:14;;;;;;;5.30;2.43;;;5.40;48.70;;;;;;5054015;28;46826;-79
2024/01/28 11:02:40;;;;;;;6.80;2.77;;;5.40;48.70;;;;;;5064297;28;46877;-79
2024/01/28 11:05:07;;;;;;;4.43;2.80;;;5.40;48.70;;;;;;5064541;27;46089;-80
2024/01/28 11:07:32;;;;;;;6.90;3.40;;;5.40;48.70;;;;;;5048863;28;46992;-80
2024/01/28 11:10:01;;;;;;;4.87;2.87;;;5.40;48.70;;;;;;5063794;28;46823;-79
2024/01/28 11:12:30;;;;;;;5.10;2.80;;;5.50;48.80;;;;;;5066534;28;46476;-80
2024/01/28 11:14:59;;;;;;;8.23;2.40;;;5.60;48.80;;;;;;5066531;28;47015;-80
2024/01/28 11:17:37;;;;;;;4.30;2.47;;;5.60;48.80;;;;;;5065248;28;46506;-78
2024/01/28 11:20:07;;;;;;;5.40;3.70;;;5.70;49.10;;;;;;5064938;28;46542;-78
2024/01/28 11:22:45;;;;;;;3.83;2.50;;;5.80;47.60;;;;;;5062917;27;46610;-82
2024/01/28 11:25:11;;;;;;;3.93;2.30;;;5.90;47.30;;;;;;5056875;27;46537;-78
2024/01/28 11:27:38;;;;;;;4.47;2.70;;;6.00;47.00;;;;;;5046243;28;47159;-78
2024/01/28 11:30:04;;;;;;;5.50;2.70;;;6.00;46.30;;;;;;5065198;27;46554;-78
2024/01/28 11:32:34;;;;;;;4.90;3.10;;;6.10;45.70;;;;;;5066139;27;46906;-78
2024/01/28 11:34:59;;;;;;;7.23;3.43;;;6.10;45.10;;;;;;5058913;27;48251;-79
2024/01/28 11:37:27;;;;;;;4.97;2.57;;;6.10;44.70;;;;;;5061317;27;46616;-80
2024/01/28 11:40:03;;;;;;;7.20;3.67;;;6.10;44.60;;;;;;5067064;27;46227;-80
2024/01/28 11:42:30;;;;;;;5.57;3.13;;;6.20;44.10;;;;;;5068424;27;46509;-79
2024/01/28 11:44:55;;;;;;;7.87;3.90;;;6.20;43.40;;;;;;5061804;27;46452;-78
2024/01/28 11:47:21;;;;;;;20.27;8.93;;;6.20;43.70;;;;;;5064759;27;47018;-80
2024/01/28 11:49:48;;;;;;;5.57;3.57;;;6.20;43.60;;;;;;5064543;27;46488;-79
2024/01/28 11:52:15;;;;;;;7.30;3.50;;;6.30;43.60;;;;;;5061928;27;46577;-79
2024/01/28 11:54:44;;;;;;;5.30;4.00;;;6.30;44.70;;;;;;5057736;27;46964;-79
2024/01/28 11:57:10;;;;;;;6.80;4.30;;;6.40;43.30;;;;;;5061856;27;46521;-79
2024/01/28 11:59:38;;;;;;;6.53;3.93;;;6.40;44.20;;;;;;5045551;28;46632;-80
2024/01/28 12:02:04;;;;;;;5.90;3.63;;;6.40;42.90;;;;;;5050204;28;46630;-78
2024/01/28 12:04:31;;;;;;;8.00;4.07;;;6.40;42.70;;;;;;5056892;27;47015;-80
2024/01/28 12:06:56;;;;;;;4.87;3.60;;;6.40;42.40;;;;;;5042878;27;46443;-79
2024/01/28 12:09:22;;;;;;;7.00;4.20;;;6.40;42.10;;;;;;5062126;27;47682;-80
2024/01/28 12:11:48;;;;;;;6.77;4.07;;;6.50;42.00;;;;;;5063656;27;46654;-77
2024/01/28 12:14:14;;;;;;;6.40;3.67;;;6.50;41.80;;;;;;5061745;27;46341;-80
2024/01/28 12:16:39;;;;;;;7.57;3.87;;;6.50;41.70;;;;;;5053410;28;46390;-80
2024/01/28 12:19:10;;;;;;;8.73;3.80;;;6.60;41.40;;;;;;5065394;27;46367;-78
2024/01/28 12:21:35;;;;;;;5.93;4.20;;;6.60;41.20;;;;;;5064169;27;47191;-79
2024/01/28 12:24:02;;;;;;;5.70;2.90;;;6.60;40.00;;;;;;5060688;27;46818;-79
2024/01/28 12:26:34;;;;;;;6.37;3.87;;;6.70;40.00;;;;;;5053911;27;46565;-78
2024/01/28 12:29:00;;;;;;;6.17;3.30;;;6.70;39.90;;;;;;5064133;27;46449;-79
2024/01/28 12:31:26;;;;;;;4.33;2.70;;;6.70;39.70;;;;;;5044940;27;46527;-79
2024/01/28 12:33:51;;;;;;;5.17;2.90;;;6.70;39.40;;;;;;5063090;27;47985;-80
2024/01/28 12:36:17;;;;;;;5.83;2.83;;;6.80;39.10;;;;;;5049468;27;46579;-77
2024/01/28 12:38:43;;;;;;;5.40;2.90;;;6.90;38.70;;;;;;5066036;27;46798;-82